WetterOnline ( http://www.wetteronline.de )

Wetter aktuell Seiffen

Aktuelles Wetter: Chemnitz (420m)

6-stündlich | Neueste Meldungen
Ortszeit Temperatur Wetter
Fr, 28.04. 14:00 8.0° C bewölkt
Fr, 28.04. 8:00 2.6° C bedeckt
Fr, 28.04. 2:00 3.7° C bedeckt
Do, 27.04. 20:00 6.1° C bedeckt
Ortszeit Temperatur Wetter
Fr, 28.04. 19:30 7.6° C bedeckt
Fr, 28.04. 19:00 7.2° C bewölkt
Fr, 28.04. 18:30 7.4° C bewölkt
Fr, 28.04. 18:00 8.4° C bedeckt
Fr, 28.04. 17:30 8.8° C bedeckt
Fr, 28.04. 17:00 7.4° C bewölkt
Ortszeit Relative Feuchte Sichtweite
Fr, 28.04. 14:00 63% 16 km
Fr, 28.04. 8:00 90% 4.0 km
Fr, 28.04. 2:00 83% 6 km
Do, 27.04. 20:00 71% 12 km
Ortszeit Relative Feuchte Sichtweite
Fr, 28.04. 19:30 66% 16 km
Fr, 28.04. 19:00 69% 15 km
Fr, 28.04. 18:30 62% 17 km
Fr, 28.04. 18:00 53% 22 km
Fr, 28.04. 17:30 55% 22 km
Fr, 28.04. 17:00 62% 14 km
Ortszeit Niederschlagsmenge Niederschlagsart
Fr, 28.04. 14:00 0,0 l/m2 in 6 Std. -
Fr, 28.04. 8:00 0,0 l/m2 in 12 Std. -
Fr, 28.04. 2:00 0,0 l/m2 in 6 Std. -
Do, 27.04. 20:00 0,0 l/m2 in 12 Std. -
Ortszeit Niederschlagsmenge Niederschlagsart
Fr, 28.04. 19:30 keine Meldung -
Fr, 28.04. 19:00 0,0 l/m2 in 1 Std. -
Fr, 28.04. 18:30 keine Meldung -
Fr, 28.04. 18:00 0,0 l/m2 in 1 Std. -
Fr, 28.04. 17:30 keine Meldung -
Fr, 28.04. 17:00 0.05 l/m2 in 1 Std. Regen
Ortszeit Stärke Spitze Richtung
km/h Bft. km/h Grad Sektor
Fr, 28.04. 14:00 15 3 31 20° N
Fr, 28.04. 8:00 4 1 7 220° SW
Fr, 28.04. 2:00 4 1 11 30° NO
Do, 27.04. 20:00 7 2 13 360° N
Ortszeit Stärke Spitze Richtung
km/h Bft. km/h Grad Sektor
Fr, 28.04. 19:30 9 2 15 340° N
Fr, 28.04. 19:00 11 2 30 320° NW
Fr, 28.04. 18:30 18 3 29 310° NW
Fr, 28.04. 18:00 14 3 29 340° N
Fr, 28.04. 17:30 17 3 26 340° N
Fr, 28.04. 17:00 17 3 33 330° NW
Ortszeit Untergrenze Bedeckung Gattung
total tief tief mittel hoch
Fr, 28.04. 14:00 1020 m 8/8 7/8 - - -
Fr, 28.04. 8:00 2400 m 8/8 8/8 - - -
Fr, 28.04. 2:00 1800 m 8/8 8/8 - - -
Do, 27.04. 20:00 1200 m 8/8 8/8 - - -
Ortszeit Bedeckungsgrad in Achtel und Wolkenuntergrenze
Fr, 28.04. 19:30 1(1440m) 8(1800m) 8(2400m)
Fr, 28.04. 19:00 1(1260m) 6(2700m) 8(6300m)
Fr, 28.04. 18:30 5(1200m) 7(1440m)
Fr, 28.04. 18:00 4(1350m) 8(1500m) 8(1800m)
Fr, 28.04. 17:30 7(1500m) 8(1800m)
Fr, 28.04. 17:00 2(1320m) 7(1800m)
Ortszeit Luftdruck NN (hPa) Tendenz (hPa in 3 Std.)
Fr, 28.04. 14:00 1012 - 0,5
Fr, 28.04. 8:00 1014 0,0
Fr, 28.04. 2:00 1015 - 0,8
Do, 27.04. 20:00 1015 - 0,4
Ortszeit Luftdruck NN (hPa) Tendenz (hPa in 3 Std.)
Fr, 28.04. 19:30 1013 + 0,6
Fr, 28.04. 19:00 1013 + 0,5
Fr, 28.04. 18:30 1013 + 0,4
Fr, 28.04. 18:00 1013 + 0,3
Fr, 28.04. 17:30 1012 + 0,1
Fr, 28.04. 17:00 1013 + 0,3
Ortszeit Schneehöhe (cm)
Fr, 28.04. 14:00 -
Fr, 28.04. 8:00 -
Fr, 28.04. 2:00 -
Do, 27.04. 20:00 -
Ortszeit Schneehöhe (cm)
Fr, 28.04. 19:30 -
Fr, 28.04. 19:00 -
Fr, 28.04. 18:30 -
Fr, 28.04. 18:00 -
Fr, 28.04. 17:30 -
Fr, 28.04. 17:00 -
Link zu dieser Seite / Seite empfehlen

Das Wetter in ...